createdAt,value
2023-04-14T03:10:28.221Z,7.84
2023-04-14T03:13:00.646Z,7.80
2023-04-14T03:15:27.870Z,7.78
2023-04-14T03:17:57.237Z,7.76
2023-04-14T03:20:27.247Z,7.73
2023-04-14T03:22:58.634Z,7.72
2023-04-14T03:25:30.999Z,7.71
2023-04-14T03:28:02.050Z,7.70
2023-04-14T03:30:31.245Z,7.69
2023-04-14T03:33:08.847Z,7.68
2023-04-14T03:35:37.073Z,7.66
2023-04-14T03:38:07.742Z,7.65
2023-04-14T03:40:41.408Z,7.63
2023-04-14T03:43:12.495Z,7.63
2023-04-14T03:48:23.826Z,7.62
2023-04-14T03:50:52.145Z,7.63
2023-04-14T03:53:20.864Z,7.67
2023-04-14T03:55:54.633Z,7.69
2023-04-14T03:58:21.944Z,7.69
2023-04-14T04:00:51.544Z,7.72
2023-04-14T04:03:21.093Z,7.75
2023-04-14T04:05:49.197Z,7.80
2023-04-14T04:08:16.606Z,7.85
2023-04-14T04:10:46.514Z,7.89
2023-04-14T04:13:20.664Z,7.93
2023-04-14T04:15:49.118Z,7.97
2023-04-14T04:18:19.805Z,8.03
2023-04-14T04:20:48.537Z,8.08
2023-04-14T04:23:22.641Z,8.10
2023-04-14T04:25:51.077Z,8.12
2023-04-14T04:28:24.034Z,8.13
2023-04-14T04:30:54.374Z,8.13
2023-04-14T04:33:25.212Z,8.14
2023-04-14T04:35:54.714Z,8.16
2023-04-14T04:38:23.784Z,8.19
2023-04-14T04:40:50.857Z,8.18
2023-04-14T04:43:26.694Z,8.17
2023-04-14T04:46:12.213Z,8.16
2023-04-14T04:48:38.812Z,8.16
2023-04-14T04:51:05.192Z,8.18
2023-04-14T04:53:31.550Z,8.22
2023-04-14T04:55:57.855Z,8.26
2023-04-14T04:58:24.118Z,8.30
2023-04-14T05:00:50.514Z,8.30
2023-04-14T05:03:16.873Z,8.30
2023-04-14T05:05:43.228Z,8.31
2023-04-14T05:08:10.405Z,8.33
2023-04-14T05:10:37.874Z,8.37
2023-04-14T05:13:04.172Z,8.40
2023-04-14T05:15:30.441Z,8.45
2023-04-14T05:17:56.714Z,8.51
2023-04-14T05:20:23.070Z,8.55
2023-04-14T05:22:49.430Z,8.59
2023-04-14T05:25:15.711Z,8.63
2023-04-14T05:27:41.952Z,8.66
2023-04-14T05:30:08.475Z,8.71
2023-04-14T05:32:35.031Z,8.75
2023-04-14T05:35:02.317Z,8.79
2023-04-14T05:37:28.606Z,8.80
2023-04-14T05:39:54.963Z,8.83
2023-04-14T05:42:21.227Z,8.85
2023-04-14T05:44:47.495Z,8.86
2023-04-14T05:47:13.921Z,8.88
2023-04-14T05:49:40.359Z,8.90
2023-04-14T05:52:06.614Z,8.93
2023-04-14T05:54:33.058Z,8.96
2023-04-14T05:56:59.301Z,9.00
2023-04-14T05:59:25.543Z,9.08
2023-04-14T06:01:52.107Z,9.17
2023-04-14T06:04:18.583Z,9.27
2023-04-14T06:06:45.026Z,9.40
2023-04-14T06:09:11.291Z,9.52
2023-04-14T06:11:37.530Z,9.63
2023-04-14T06:14:03.873Z,9.73
2023-04-14T06:16:30.264Z,9.84
2023-04-14T06:18:56.569Z,9.95
2023-04-14T06:21:22.839Z,10.05
2023-04-14T06:23:49.099Z,10.09
2023-04-14T06:26:15.375Z,10.15
2023-04-14T06:28:43.713Z,10.26
2023-04-14T06:31:10.366Z,10.32
2023-04-14T06:33:36.931Z,10.32
2023-04-14T06:36:03.337Z,10.33
2023-04-14T06:38:29.626Z,10.40
2023-04-14T06:40:55.895Z,10.53
2023-04-14T06:43:22.210Z,10.71
2023-04-14T06:45:48.612Z,10.97
2023-04-14T06:48:14.859Z,11.29
2023-04-14T06:50:42.691Z,11.66
2023-04-14T06:53:10.497Z,11.85
2023-04-14T06:55:39.693Z,11.91
2023-04-14T06:58:06.007Z,11.95
2023-04-14T07:00:32.310Z,12.02
2023-04-14T07:02:58.690Z,12.02
2023-04-14T07:05:25.206Z,11.99
2023-04-14T07:07:51.515Z,12.02
2023-04-14T07:10:17.848Z,12.19
2023-04-14T07:12:44.308Z,12.30
2023-04-14T07:15:10.805Z,12.36
2023-04-14T07:17:37.172Z,12.42
2023-04-14T07:20:03.715Z,12.47
2023-04-14T07:22:30.024Z,12.49
2023-04-14T07:24:56.292Z,12.56
2023-04-14T07:27:22.618Z,12.60
2023-04-14T07:29:49.324Z,12.70
2023-04-14T07:32:15.684Z,12.82
2023-04-14T07:34:42.052Z,12.92
2023-04-14T07:37:08.945Z,13.00
2023-04-14T07:39:35.491Z,13.07
2023-04-14T07:42:01.815Z,13.15
2023-04-14T07:44:28.514Z,13.21
2023-04-14T07:46:54.748Z,13.28
2023-04-14T07:49:21.023Z,13.42
2023-04-14T07:51:47.462Z,13.51
2023-04-14T07:54:13.723Z,13.61
2023-04-14T07:56:40.051Z,13.71
2023-04-14T07:59:06.775Z,13.76
2023-04-14T08:01:33.065Z,13.80
2023-04-14T08:03:59.575Z,13.88
2023-04-14T08:06:26.275Z,13.95
2023-04-14T08:08:52.569Z,14.02
2023-04-14T08:11:18.871Z,14.17
2023-04-14T08:13:45.890Z,14.37
2023-04-14T08:16:12.215Z,14.45
2023-04-14T08:18:39.614Z,14.47
2023-04-14T08:21:06.144Z,14.56
2023-04-14T08:23:32.918Z,14.68
2023-04-14T08:25:59.244Z,14.80
2023-04-14T08:28:27.350Z,14.85
2023-04-14T08:30:53.611Z,14.86
2023-04-14T08:33:20.044Z,14.98
2023-04-14T08:35:46.728Z,15.09
2023-04-14T08:38:24.384Z,15.29
2023-04-14T08:40:54.187Z,15.45
2023-04-14T08:43:20.510Z,15.51
2023-04-14T08:45:48.994Z,15.46
2023-04-14T08:48:18.766Z,15.42
2023-04-14T08:51:05.440Z,15.41
2023-04-14T08:53:35.977Z,15.48
2023-04-14T08:56:03.641Z,15.69
2023-04-14T08:58:32.642Z,15.92
2023-04-14T09:00:59.718Z,16.05
2023-04-14T09:03:26.498Z,16.15
2023-04-14T09:05:53.534Z,16.29
2023-04-14T09:08:20.542Z,16.31
2023-04-14T09:10:46.917Z,16.22
2023-04-14T09:13:15.589Z,16.21
2023-04-14T09:15:42.604Z,16.38
2023-04-14T09:18:10.044Z,16.60
2023-04-14T09:20:40.793Z,16.68
2023-04-14T09:23:08.711Z,16.59
2023-04-14T09:25:34.988Z,16.45
2023-04-14T09:28:01.331Z,16.36
2023-04-14T09:30:28.293Z,16.43
2023-04-14T09:32:54.582Z,16.51
2023-04-14T09:35:20.941Z,16.61
2023-04-14T09:37:47.829Z,16.78
2023-04-14T09:40:27.226Z,16.95
2023-04-14T09:42:55.178Z,17.15
2023-04-14T09:45:21.511Z,17.42
2023-04-14T09:47:48.355Z,17.56
2023-04-14T09:50:15.053Z,17.51
2023-04-14T09:52:42.168Z,17.39
2023-04-14T09:55:15.462Z,17.19
2023-04-14T09:57:45.813Z,16.94
2023-04-14T10:00:14.916Z,16.80
2023-04-14T10:02:51.816Z,16.72
2023-04-14T10:05:19.098Z,16.76
2023-04-14T10:07:45.579Z,16.93
2023-04-14T10:10:12.318Z,17.14
2023-04-14T10:12:42.323Z,17.28
2023-04-14T10:15:09.287Z,17.46
2023-04-14T10:17:35.966Z,17.93
2023-04-14T10:20:02.560Z,18.34
2023-04-14T10:22:29.251Z,18.60
2023-04-14T10:24:57.974Z,18.87
2023-04-14T10:27:30.211Z,19.07
2023-04-14T10:29:57.400Z,19.13
2023-04-14T10:32:25.877Z,19.02
2023-04-14T10:34:55.226Z,18.84
2023-04-14T10:37:21.538Z,18.61
2023-04-14T10:39:57.701Z,18.30
2023-04-14T10:42:24.558Z,18.01
2023-04-14T10:45:03.628Z,17.80
2023-04-14T10:47:30.353Z,17.52
2023-04-14T10:49:56.914Z,17.31
2023-04-14T10:52:26.514Z,17.16
2023-04-14T10:54:53.914Z,17.11
2023-04-14T10:57:24.082Z,17.17
2023-04-14T10:59:53.652Z,17.23
2023-04-14T11:02:30.977Z,17.28
2023-04-14T11:05:07.310Z,17.37
2023-04-14T11:07:38.213Z,17.37
2023-04-14T11:10:17.034Z,17.25
2023-04-14T11:12:43.763Z,17.08
2023-04-14T11:15:10.294Z,16.91
2023-04-14T11:17:37.346Z,16.67
2023-04-14T11:20:17.152Z,16.47
2023-04-14T11:22:44.656Z,16.34
2023-04-14T11:25:12.234Z,16.31
2023-04-14T11:27:39.053Z,16.27
2023-04-14T11:30:06.168Z,16.22
2023-04-14T11:32:52.327Z,16.16
2023-04-14T11:35:20.069Z,16.17
2023-04-14T11:38:00.570Z,16.23
2023-04-14T11:40:28.103Z,16.31
2023-04-14T11:42:55.953Z,16.45
2023-04-14T11:45:26.104Z,16.65
2023-04-14T11:48:04.471Z,16.87
2023-04-14T11:50:32.330Z,17.14
2023-04-14T11:52:59.328Z,17.66
2023-04-14T11:55:26.587Z,18.54
2023-04-14T11:57:53.840Z,20.06
2023-04-14T12:00:20.330Z,21.21
2023-04-14T12:02:46.838Z,21.63
2023-04-14T12:05:18.442Z,21.99
2023-04-14T12:07:44.757Z,21.39
2023-04-14T12:10:11.220Z,20.65
2023-04-14T12:12:38.066Z,19.90
2023-04-14T12:15:04.643Z,19.19
2023-04-14T12:17:31.128Z,18.55
2023-04-14T12:19:59.133Z,18.03
2023-04-14T12:22:26.420Z,17.64
2023-04-14T12:24:53.193Z,17.37
2023-04-14T12:27:21.536Z,17.21
2023-04-14T12:29:47.821Z,17.10
2023-04-14T12:32:14.267Z,17.16
2023-04-14T12:34:40.865Z,17.44
2023-04-14T12:37:11.210Z,17.87
2023-04-14T12:39:50.448Z,18.19
2023-04-14T12:42:16.862Z,18.65
2023-04-14T12:44:52.936Z,19.97
2023-04-14T12:47:34.444Z,20.90
2023-04-14T12:50:22.336Z,20.74
2023-04-14T12:52:51.702Z,20.11
2023-04-14T12:55:29.748Z,19.60
2023-04-14T12:58:05.903Z,19.05
2023-04-14T13:26:22.760Z,17.18
2023-04-14T13:28:49.054Z,16.99
2023-04-14T13:31:16.257Z,16.79
2023-04-14T13:33:42.789Z,16.68
2023-04-14T13:36:09.057Z,16.60
2023-04-14T13:38:35.374Z,16.52
2023-04-14T13:41:01.754Z,16.44
2023-04-14T13:43:28.229Z,16.37
2023-04-14T13:45:57.872Z,16.27
2023-04-14T13:48:24.370Z,16.09
2023-04-14T13:50:51.387Z,15.91
2023-04-14T13:53:17.751Z,15.78
2023-04-14T13:55:44.263Z,15.70
2023-04-14T13:58:10.603Z,15.66
2023-04-14T14:00:36.910Z,15.61
2023-04-14T14:03:03.408Z,15.53
2023-04-14T14:05:30.135Z,15.44
2023-04-14T14:07:56.452Z,15.36
2023-04-14T14:10:23.001Z,15.31
2023-04-14T14:12:49.775Z,15.28
2023-04-14T14:15:16.192Z,15.25
2023-04-14T14:17:42.594Z,15.24
2023-04-14T14:20:09.195Z,15.24
2023-04-14T14:22:35.542Z,15.26
2023-04-14T14:25:17.500Z,15.28
2023-04-14T14:27:44.742Z,15.32
2023-04-14T14:30:11.716Z,15.34
2023-04-14T14:32:38.035Z,15.33
2023-04-14T14:35:04.695Z,15.31
2023-04-14T14:37:30.979Z,15.28
2023-04-14T14:39:57.273Z,15.26
2023-04-14T14:42:23.763Z,15.24
2023-04-14T14:44:50.072Z,15.24
2023-04-14T14:47:16.357Z,15.22
2023-04-14T14:49:53.000Z,15.17
2023-04-14T14:52:33.214Z,15.16
2023-04-14T14:55:00.033Z,15.20
2023-04-14T14:57:26.431Z,15.24
2023-04-14T14:59:52.985Z,15.29
2023-04-14T15:02:19.823Z,15.31
2023-04-14T15:04:46.328Z,15.34
2023-04-14T15:07:12.863Z,15.33
2023-04-14T15:09:39.696Z,15.28
2023-04-14T15:12:06.146Z,15.22
2023-04-14T15:14:32.574Z,15.20
2023-04-14T15:16:58.987Z,15.24
2023-04-14T15:19:25.305Z,15.30
2023-04-14T15:21:51.855Z,15.34
2023-04-14T15:24:18.227Z,15.32
2023-04-14T15:26:44.536Z,15.25
2023-04-14T15:29:10.848Z,15.16
2023-04-14T15:31:37.451Z,15.08
2023-04-14T15:34:04.172Z,15.03
2023-04-14T15:39:42.280Z,14.98
2023-04-14T15:42:09.448Z,14.94
2023-04-14T15:44:42.144Z,14.89
2023-04-14T15:47:08.856Z,14.82
2023-04-14T15:49:38.824Z,14.76
2023-04-14T15:52:15.670Z,14.70
2023-04-14T15:54:45.681Z,14.63
2023-04-14T15:57:21.807Z,14.57
2023-04-14T16:00:05.781Z,14.50
2023-04-14T16:03:06.930Z,14.44
2023-04-14T16:05:33.824Z,14.38
2023-04-14T16:08:07.666Z,14.33
2023-04-14T16:10:38.071Z,14.29
2023-04-14T16:13:04.642Z,14.25
2023-04-14T16:15:31.194Z,14.21
2023-04-14T16:17:57.634Z,14.18
2023-04-14T16:20:24.256Z,14.16
2023-04-14T16:22:50.730Z,14.15
2023-04-14T16:25:17.239Z,14.13
2023-04-14T16:27:43.701Z,14.10
2023-04-14T16:30:10.436Z,14.06
2023-04-14T16:32:36.979Z,14.04
2023-04-14T16:35:03.630Z,14.04
2023-04-14T16:37:30.470Z,14.00
2023-04-14T16:40:01.362Z,13.97
2023-04-14T16:42:29.737Z,13.96
2023-04-14T16:44:56.201Z,13.94
2023-04-14T16:47:22.817Z,13.95
2023-04-14T16:49:49.554Z,13.94
2023-04-14T16:52:16.150Z,13.92
2023-04-14T16:54:42.874Z,13.90
2023-04-14T16:57:09.934Z,13.87
2023-04-14T16:59:36.547Z,13.83
2023-04-14T17:02:03.264Z,13.80
2023-04-14T17:04:30.069Z,13.77
2023-04-14T17:06:56.772Z,13.75
2023-04-14T17:09:23.503Z,13.72
2023-04-14T17:11:49.970Z,13.68
2023-04-14T17:14:16.429Z,13.64
2023-04-14T17:16:43.113Z,13.60
2023-04-14T17:19:09.754Z,13.57
2023-04-14T17:21:36.248Z,13.54
2023-04-14T17:24:03.040Z,13.50
2023-04-14T17:26:29.675Z,13.48
2023-04-14T17:28:56.183Z,13.46
2023-04-14T17:31:22.769Z,13.46
2023-04-14T17:33:49.474Z,13.44
2023-04-14T17:36:15.985Z,13.42
2023-04-14T17:38:42.894Z,13.41
2023-04-14T17:41:10.968Z,13.40
2023-04-14T17:43:38.653Z,13.37
2023-04-14T17:46:05.232Z,13.32
2023-04-14T17:48:31.938Z,13.28
2023-04-14T17:50:59.090Z,13.27
2023-04-14T17:53:25.765Z,13.25
2023-04-14T17:55:52.810Z,13.21
2023-04-14T17:58:19.901Z,13.16
2023-04-14T18:00:46.842Z,13.11
2023-04-14T18:03:14.584Z,13.08
2023-04-14T18:05:41.666Z,13.04
2023-04-14T18:08:08.278Z,13.00
2023-04-14T18:10:35.000Z,12.97
2023-04-14T18:13:01.545Z,12.93
2023-04-14T18:15:28.096Z,12.87
2023-04-14T18:17:54.912Z,12.81
2023-04-14T18:20:22.771Z,12.76
2023-04-14T18:22:49.415Z,12.71
2023-04-14T18:25:17.461Z,12.65
2023-04-14T18:30:38.627Z,12.55
2023-04-14T18:33:06.177Z,12.49
2023-04-14T18:35:41.778Z,12.43
2023-04-14T18:38:15.203Z,12.36
2023-04-14T18:40:46.917Z,12.31
2023-04-14T18:43:13.728Z,12.25
2023-04-14T18:45:43.754Z,12.18
2023-04-14T18:48:10.395Z,12.10
2023-04-14T18:50:36.911Z,12.01
2023-04-14T18:53:06.845Z,11.91
2023-04-14T18:55:43.322Z,11.83
2023-04-14T18:58:15.188Z,11.77
2023-04-14T19:00:43.755Z,11.70
2023-04-14T19:03:10.398Z,11.64
2023-04-14T19:05:46.664Z,11.60
2023-04-14T19:08:13.204Z,11.56
2023-04-14T19:10:42.431Z,11.52
2023-04-14T19:13:08.991Z,11.49
2023-04-14T19:15:35.589Z,11.47
2023-04-14T19:18:02.036Z,11.44
2023-04-14T19:20:28.391Z,11.43
2023-04-14T19:22:54.814Z,11.41
2023-04-14T19:25:21.236Z,11.38
2023-04-14T19:27:47.838Z,11.36
2023-04-14T19:30:14.752Z,11.35
2023-04-14T19:32:41.475Z,11.32
2023-04-14T19:35:11.759Z,11.30
2023-04-14T19:37:38.896Z,11.27
2023-04-14T19:40:05.752Z,11.24
2023-04-14T19:42:32.494Z,11.22
2023-04-14T19:44:59.458Z,11.20
2023-04-14T19:47:26.077Z,11.18
2023-04-14T19:49:53.492Z,11.16
2023-04-14T19:52:20.140Z,11.14
2023-04-14T19:54:46.960Z,11.11
2023-04-14T19:57:13.605Z,11.10
2023-04-14T19:59:40.421Z,11.08
2023-04-14T20:02:06.933Z,11.06
2023-04-14T20:04:33.602Z,11.05
2023-04-14T20:07:00.152Z,11.04
2023-04-14T20:09:28.548Z,11.02
2023-04-14T20:11:59.302Z,11.00
2023-04-14T20:14:25.778Z,10.97
2023-04-14T20:16:52.422Z,10.95
2023-04-14T20:19:18.983Z,10.93
2023-04-14T20:21:45.541Z,10.92
2023-04-14T20:24:12.473Z,10.92
2023-04-14T20:26:38.890Z,10.92
2023-04-14T20:29:05.246Z,10.91
2023-04-14T20:31:31.628Z,10.91
2023-04-14T20:33:58.029Z,10.91
2023-04-14T20:36:24.512Z,10.93
2023-04-14T20:38:51.092Z,10.93
2023-04-14T20:41:17.386Z,10.92
2023-04-14T20:43:43.783Z,10.90
2023-04-14T20:46:10.249Z,10.89
2023-04-14T20:48:36.760Z,10.88
2023-04-14T20:51:03.465Z,10.89
2023-04-14T20:53:29.779Z,10.87
2023-04-14T20:55:56.070Z,10.86
2023-04-14T20:58:22.652Z,10.84
2023-04-14T21:00:49.452Z,10.81
2023-04-14T21:03:15.977Z,10.80
2023-04-14T21:05:42.490Z,10.78
2023-04-14T21:08:08.992Z,10.76
2023-04-14T21:10:35.249Z,10.74
2023-04-14T21:15:31.486Z,10.74
2023-04-14T21:15:56.354Z,10.75
2023-04-14T21:18:23.616Z,10.76
2023-04-14T21:20:49.990Z,10.76
2023-04-14T21:23:16.785Z,10.75
2023-04-14T21:25:43.261Z,10.75
2023-04-14T21:28:09.563Z,10.74
2023-04-14T21:30:36.395Z,10.72
2023-04-14T21:33:03.793Z,10.70
2023-04-14T21:35:31.735Z,10.69
2023-04-14T21:37:58.273Z,10.67
2023-04-14T21:40:24.653Z,10.66
2023-04-14T21:42:50.927Z,10.64
2023-04-14T21:45:17.436Z,10.64
2023-04-14T21:47:44.199Z,10.62
2023-04-14T21:50:10.558Z,10.60
2023-04-14T21:52:36.940Z,10.58
2023-04-14T21:55:04.057Z,10.55
2023-04-14T21:57:42.932Z,10.52
2023-04-14T22:00:16.047Z,10.51
2023-04-14T22:02:45.892Z,10.50
2023-04-14T22:05:13.083Z,10.47
2023-04-14T22:07:39.535Z,10.42
2023-04-14T22:10:06.552Z,10.38
2023-04-14T22:12:33.289Z,10.32
2023-04-14T22:15:00.394Z,10.27
2023-04-14T22:17:26.847Z,10.23
2023-04-14T22:19:53.136Z,10.19
2023-04-14T22:22:19.549Z,10.17
2023-04-14T22:24:45.813Z,10.17
2023-04-14T22:27:12.066Z,10.15
2023-04-14T22:29:38.382Z,10.15
2023-04-14T22:32:04.732Z,10.14
2023-04-14T22:34:30.983Z,10.13
2023-04-14T22:36:57.438Z,10.12
2023-04-14T22:39:23.868Z,10.10
2023-04-14T22:41:50.100Z,10.07
2023-04-14T22:44:16.949Z,10.03
2023-04-14T22:46:43.332Z,9.99
2023-04-14T22:49:09.698Z,9.95
2023-04-14T22:51:35.935Z,9.89
2023-04-14T22:54:02.431Z,9.83
2023-04-14T22:56:28.713Z,9.79
2023-04-14T22:58:58.309Z,9.75
2023-04-14T23:01:25.067Z,9.70
2023-04-14T23:03:51.476Z,9.66
2023-04-14T23:06:18.706Z,9.63
2023-04-14T23:08:46.047Z,9.65
2023-04-14T23:11:12.394Z,9.66
2023-04-14T23:13:38.757Z,9.68
2023-04-14T23:16:05.389Z,9.69
2023-04-14T23:18:31.637Z,9.72
2023-04-14T23:20:57.936Z,9.74
2023-04-14T23:23:24.338Z,9.75
2023-04-14T23:25:50.701Z,9.77
2023-04-14T23:28:17.140Z,9.77
2023-04-14T23:30:43.419Z,9.78
2023-04-14T23:33:09.957Z,9.80
2023-04-14T23:35:36.334Z,9.81
2023-04-14T23:38:02.623Z,9.81
2023-04-14T23:40:29.953Z,9.81
2023-04-14T23:42:56.291Z,9.80
2023-04-14T23:45:22.665Z,9.79
2023-04-14T23:47:48.998Z,9.79
2023-04-14T23:50:15.367Z,9.79
2023-04-14T23:52:42.103Z,9.78
2023-04-14T23:55:08.586Z,9.79
2023-04-14T23:57:35.014Z,9.78
